Time;durP1;ratioP1;P1;durP2;ratioP2;P2;SDS_P1;SDS_P2;PMS_P1;PMS_P2;Temp;Humidity;BMP_temperature;BMP_pressure;BME280_temperature;BME280_humidity;BME280_pressure;Samples;Min_cycle;Max_cycle;Signal;HPM_P1;HPM_P2
2022/09/23 00:01:13;;;;;;;3.03;2.40;;;22.70;46.00;;;;;;5028093;28;20045;-60
2022/09/23 00:03:44;;;;;;;3.17;2.47;;;22.70;46.10;;;;;;5027810;28;20045;-60
2022/09/23 00:06:14;;;;;;;3.10;2.55;;;22.70;46.60;;;;;;4994930;28;20124;-60
2022/09/23 00:08:41;;;;;;;2.60;2.40;;;22.70;46.10;;;;;;5027966;28;20068;-60
2022/09/23 00:11:12;;;;;;;4.30;2.90;;;22.70;46.10;;;;;;5028354;28;20045;-60
2022/09/23 00:13:41;;;;;;;3.83;2.50;;;22.70;46.10;;;;;;5022943;28;20057;-60
2022/09/23 00:16:13;;;;;;;2.70;2.47;;;22.70;46.10;;;;;;5027669;28;20346;-60
2022/09/23 00:18:41;;;;;;;4.00;2.60;;;22.70;46.70;;;;;;5027826;28;20056;-60
2022/09/23 00:21:11;;;;;;;3.80;2.92;;;22.70;46.60;;;;;;5019581;28;20048;-60
2022/09/23 00:23:39;;;;;;;2.67;2.47;;;22.60;46.10;;;;;;5027888;28;20049;-60
2022/09/23 00:26:08;;;;;;;3.53;2.67;;;22.60;46.10;;;;;;5027611;28;20508;-60
2022/09/23 00:28:36;;;;;;;4.05;2.53;;;22.60;46.10;;;;;;5028155;28;20049;-60
2022/09/23 00:31:04;;;;;;;2.30;2.10;;;22.60;46.10;;;;;;5028688;28;20084;-60
2022/09/23 00:33:32;;;;;;;2.42;2.00;;;22.60;46.10;;;;;;5026531;28;20201;-60
2022/09/23 00:36:00;;;;;;;3.17;2.83;;;22.60;46.10;;;;;;5028310;28;20056;-60
2022/09/23 00:38:28;;;;;;;2.65;2.22;;;22.60;46.10;;;;;;5026674;28;20501;-60
2022/09/23 00:40:55;;;;;;;3.78;2.53;;;22.60;46.20;;;;;;5028292;28;20076;-60
2022/09/23 00:43:44;;;;;;;3.60;2.58;;;22.60;46.10;;;;;;5027601;28;20041;-60
2022/09/23 00:46:22;;;;;;;2.78;2.58;;;22.60;46.20;;;;;;5023329;28;20418;-60
2022/09/23 00:48:58;;;;;;;3.75;2.50;;;22.60;46.20;;;;;;5027577;28;20068;-60
2022/09/23 00:51:33;;;;;;;3.88;2.92;;;22.60;46.20;;;;;;5026239;28;20037;-60
2022/09/23 00:54:01;;;;;;;3.22;2.45;;;22.60;46.20;;;;;;5023764;28;20115;-60
2022/09/23 00:56:31;;;;;;;2.75;2.45;;;22.60;46.20;;;;;;5007741;28;20192;-60
2022/09/23 00:59:00;;;;;;;3.05;2.45;;;22.60;46.20;;;;;;5008071;28;20061;-60
2022/09/23 01:01:28;;;;;;;2.90;2.47;;;22.60;46.20;;;;;;5007806;28;20046;-60
2022/09/23 01:03:56;;;;;;;3.08;2.50;;;22.60;46.20;;;;;;5007813;28;20046;-60
2022/09/23 01:06:24;;;;;;;2.58;2.30;;;22.60;46.10;;;;;;5008392;28;20050;-60
2022/09/23 01:08:52;;;;;;;2.70;2.38;;;22.60;46.20;;;;;;5007087;28;20052;-60
2022/09/23 01:11:54;;;;;;;3.42;2.10;;;22.60;46.10;;;;;;5008195;28;20053;-60
2022/09/23 01:14:53;;;;;;;2.80;2.38;;;22.60;46.10;;;;;;5006547;28;20054;-60
2022/09/23 01:17:50;;;;;;;2.57;2.30;;;22.60;46.10;;;;;;5003407;28;20053;-60
2022/09/23 01:20:58;;;;;;;2.20;2.00;;;22.60;46.10;;;;;;5011285;28;20287;-60
2022/09/23 01:23:54;;;;;;;2.58;2.22;;;22.60;46.10;;;;;;5028831;28;20041;-60
2022/09/23 01:26:50;;;;;;;3.25;2.25;;;22.60;46.10;;;;;;5031077;28;20056;-60
2022/09/23 01:29:57;;;;;;;3.45;2.72;;;22.60;46.10;;;;;;5017870;28;20045;-60
2022/09/23 01:32:53;;;;;;;2.42;1.95;;;22.60;46.00;;;;;;5030949;28;20467;-60
2022/09/23 01:35:37;;;;;;;2.60;2.13;;;22.60;46.10;;;;;;5029789;28;20140;-60
2022/09/23 01:38:35;;;;;;;4.13;2.70;;;22.50;46.00;;;;;;5030592;28;20064;-60
2022/09/23 01:41:28;;;;;;;2.63;2.35;;;22.50;46.00;;;;;;5030980;28;20046;-60
2022/09/23 01:44:08;;;;;;;2.67;2.42;;;22.50;46.00;;;;;;5030636;28;20053;-60
2022/09/23 01:46:52;;;;;;;3.40;2.88;;;22.50;46.00;;;;;;5030677;28;20045;-60
2022/09/23 01:49:28;;;;;;;3.97;2.08;;;22.50;46.00;;;;;;5026009;28;20050;-60
2022/09/23 01:52:24;;;;;;;3.08;2.30;;;22.50;46.10;;;;;;5030613;28;20042;-60
2022/09/23 01:55:21;;;;;;;2.95;2.42;;;22.50;46.10;;;;;;5016770;28;20060;-60
2022/09/23 01:57:56;;;;;;;2.10;1.90;;;22.50;46.10;;;;;;5014137;28;20501;-60
2022/09/23 02:00:25;;;;;;;2.08;1.88;;;22.50;46.00;;;;;;5030870;28;20052;-60
2022/09/23 02:03:14;;;;;;;2.95;2.00;;;22.50;46.00;;;;;;5029738;28;20378;-60
2022/09/23 02:05:49;;;;;;;2.45;2.13;;;22.50;46.10;;;;;;5030396;28;20052;-60
2022/09/23 02:08:22;;;;;;;2.45;2.25;;;22.50;46.00;;;;;;5030388;28;20050;-60
2022/09/23 02:11:15;;;;;;;3.45;2.63;;;22.50;46.10;;;;;;5030343;28;20052;-60
2022/09/23 02:13:54;;;;;;;2.30;1.90;;;22.50;46.10;;;;;;5030080;28;20038;-60
2022/09/23 02:16:33;;;;;;;3.50;2.53;;;22.50;46.10;;;;;;5029003;28;20057;-60
2022/09/23 02:19:17;;;;;;;2.47;2.28;;;22.50;46.10;;;;;;5030149;28;20049;-60
2022/09/23 02:21:51;;;;;;;2.33;2.00;;;22.50;46.10;;;;;;5025487;28;20065;-60
2022/09/23 02:24:21;;;;;;;3.47;2.00;;;22.50;46.10;;;;;;5030098;28;20037;-60
2022/09/23 02:27:24;;;;;;;2.75;2.55;;;22.50;46.10;;;;;;5012151;28;20056;-61
2022/09/23 02:30:01;;;;;;;2.00;1.90;;;22.40;46.00;;;;;;5011976;28;20045;-61
2022/09/23 02:32:58;;;;;;;2.50;2.20;;;22.40;46.00;;;;;;5029659;28;20060;-60
2022/09/23 02:35:39;;;;;;;1.88;1.75;;;22.40;46.00;;;;;;5027837;28;20053;-60
2022/09/23 02:38:13;;;;;;;;;;;22.40;46.10;;;;;;5030509;28;20517;-60
2022/09/23 02:41:06;;;;;;;2.17;1.98;;;22.40;46.10;;;;;;5029177;28;19921;-60
2022/09/23 02:44:05;;;;;;;2.05;1.95;;;22.40;46.10;;;;;;5029652;28;20049;-60
2022/09/23 02:46:33;;;;;;;2.22;2.00;;;22.40;46.10;;;;;;5029834;28;20041;-60
2022/09/23 02:49:10;;;;;;;2.42;2.22;;;22.40;46.10;;;;;;5029533;28;20056;-60
2022/09/23 02:51:38;;;;;;;2.80;2.00;;;22.40;46.10;;;;;;5029262;28;20049;-60
2022/09/23 02:54:11;;;;;;;1.88;1.77;;;22.40;46.10;;;;;;5025193;28;20059;-60
2022/09/23 02:56:38;;;;;;;2.28;2.08;;;22.40;46.10;;;;;;5029414;28;20066;-60
2022/09/23 02:59:08;;;;;;;2.47;2.28;;;22.40;46.10;;;;;;5011845;28;20053;-60
2022/09/23 03:02:16;;;;;;;3.60;2.08;;;22.40;46.10;;;;;;5029073;28;20055;-60
2022/09/23 03:04:57;;;;;;;2.33;1.98;;;22.40;46.10;;;;;;5029178;28;20045;-60
2022/09/23 03:08:04;;;;;;;2.30;2.10;;;22.40;46.10;;;;;;5029277;28;20061;-60
2022/09/23 03:11:03;;;;;;;2.00;1.80;;;22.40;46.00;;;;;;5013938;28;20049;-60
2022/09/23 03:13:50;;;;;;;1.90;1.80;;;22.40;45.90;;;;;;5028989;28;20080;-60
2022/09/23 03:16:42;;;;;;;3.15;2.03;;;22.40;45.90;;;;;;5028685;28;20206;-60
2022/09/23 03:19:41;;;;;;;2.40;2.20;;;22.40;45.90;;;;;;5029476;28;20053;-60
2022/09/23 03:22:14;;;;;;;1.92;1.80;;;22.50;45.90;;;;;;5028554;28;20050;-60
2022/09/23 03:24:43;;;;;;;1.90;1.75;;;22.40;45.90;;;;;;5010593;28;20050;-60
2022/09/23 03:27:17;;;;;;;1.70;1.60;;;22.40;45.90;;;;;;5003194;28;20050;-60
2022/09/23 03:29:47;;;;;;;2.10;1.90;;;22.40;45.90;;;;;;4991257;28;20046;-61
2022/09/23 03:32:18;;;;;;;2.22;1.90;;;22.40;45.90;;;;;;5007854;28;20528;-60
2022/09/23 03:34:46;;;;;;;;;;;22.40;45.90;;;;;;5009291;28;20050;-60
2022/09/23 03:37:32;;;;;;;2.63;2.42;;;22.40;45.90;;;;;;5008854;28;19921;-60
2022/09/23 03:40:21;;;;;;;1.98;1.77;;;22.40;45.90;;;;;;5005850;28;20041;-61
2022/09/23 03:42:48;;;;;;;2.13;1.92;;;22.40;45.90;;;;;;4991951;28;20092;-60
2022/09/23 03:45:19;;;;;;;2.28;1.75;;;22.40;45.90;;;;;;5005267;28;20366;-60
2022/09/23 03:47:46;;;;;;;2.40;1.70;;;22.40;45.90;;;;;;5007004;28;20053;-60
2022/09/23 03:50:16;;;;;;;1.95;1.55;;;22.30;45.80;;;;;;5004243;28;20050;-60
2022/09/23 03:52:43;;;;;;;3.07;2.07;;;22.40;45.90;;;;;;5006962;28;20046;-60
2022/09/23 03:55:10;;;;;;;1.90;1.80;;;22.40;45.90;;;;;;5001816;28;20767;-61
2022/09/23 03:57:38;;;;;;;1.67;1.50;;;22.30;45.90;;;;;;4995718;28;20042;-61
2022/09/23 04:00:06;;;;;;;1.60;1.50;;;22.30;45.80;;;;;;4990214;28;20165;-60
2022/09/23 04:02:33;;;;;;;1.80;1.70;;;22.30;45.80;;;;;;5004841;28;20041;-60
2022/09/23 04:05:00;;;;;;;2.85;2.00;;;22.30;45.80;;;;;;4989489;28;20054;-60
2022/09/23 04:07:27;;;;;;;1.70;1.60;;;22.30;45.80;;;;;;4999030;28;20045;-60
2022/09/23 04:09:54;;;;;;;1.65;1.55;;;22.30;45.90;;;;;;5009661;28;20402;-60
2022/09/23 04:12:22;;;;;;;2.47;1.70;;;22.30;45.90;;;;;;5008491;28;20038;-60
2022/09/23 04:14:49;;;;;;;1.50;1.40;;;22.30;45.90;;;;;;5013016;28;20050;-60
2022/09/23 04:17:16;;;;;;;1.75;1.65;;;22.30;45.90;;;;;;5017496;28;20386;-60
2022/09/23 04:19:44;;;;;;;1.63;1.52;;;22.30;46.00;;;;;;5018599;28;20049;-60
2022/09/23 04:22:11;;;;;;;1.70;1.50;;;22.30;46.00;;;;;;5014369;28;20049;-60
2022/09/23 04:24:38;;;;;;;1.85;1.70;;;22.30;46.00;;;;;;5004399;28;20084;-60
2022/09/23 04:27:05;;;;;;;1.58;1.48;;;22.30;46.00;;;;;;5013130;28;20042;-59
2022/09/23 04:29:32;;;;;;;1.60;1.50;;;22.30;46.00;;;;;;5013418;28;20149;-59
2022/09/23 04:31:59;;;;;;;1.63;1.52;;;22.30;46.20;;;;;;4999536;28;20053;-61
2022/09/23 04:34:26;;;;;;;2.22;1.75;;;22.30;46.20;;;;;;5013691;28;20045;-60
2022/09/23 04:36:53;;;;;;;1.75;1.60;;;22.30;46.20;;;;;;5009162;28;20060;-60
2022/09/23 04:39:20;;;;;;;2.25;1.65;;;22.40;46.20;;;;;;5016058;28;20045;-61
2022/09/23 04:41:47;;;;;;;3.70;1.70;;;22.30;46.20;;;;;;5022510;28;20639;-61
2022/09/23 04:44:15;;;;;;;1.80;1.30;;;22.30;46.10;;;;;;5007279;28;20046;-61
2022/09/23 04:46:46;;;;;;;1.90;1.65;;;22.30;46.10;;;;;;5005678;28;20054;-60
2022/09/23 04:49:15;;;;;;;1.88;1.67;;;22.30;46.00;;;;;;4997734;28;20054;-61
2022/09/23 04:51:42;;;;;;;1.50;1.40;;;22.30;45.80;;;;;;4993792;28;20438;-60
2022/09/23 04:54:10;;;;;;;1.88;1.67;;;22.30;45.70;;;;;;5002348;28;20046;-61
2022/09/23 04:56:38;;;;;;;1.83;1.67;;;22.30;45.60;;;;;;5005019;28;20394;-60
2022/09/23 04:59:06;;;;;;;1.80;1.70;;;22.30;45.50;;;;;;4998869;28;20421;-60
2022/09/23 05:01:35;;;;;;;1.58;1.48;;;22.30;45.40;;;;;;4998694;28;20414;-61
2022/09/23 05:04:05;;;;;;;1.67;1.33;;;22.20;45.80;;;;;;5011360;28;20050;-60
2022/09/23 05:06:34;;;;;;;3.67;1.60;;;22.30;45.30;;;;;;5011685;28;20058;-60
2022/09/23 05:09:03;;;;;;;1.55;1.40;;;22.30;45.20;;;;;;5011387;28;20056;-60
2022/09/23 05:11:31;;;;;;;1.70;1.60;;;22.30;45.10;;;;;;5010591;28;20053;-60
2022/09/23 05:13:58;;;;;;;1.45;1.30;;;22.30;45.00;;;;;;5027561;28;20303;-61
2022/09/23 05:16:26;;;;;;;2.60;1.40;;;22.30;44.90;;;;;;5006782;28;20046;-60
2022/09/23 05:18:53;;;;;;;1.70;1.50;;;22.30;44.80;;;;;;5000785;28;20480;-61
2022/09/23 05:21:26;;;;;;;1.33;1.23;;;22.30;44.90;;;;;;4986739;28;20080;-63
2022/09/23 05:23:57;;;;;;;5.85;1.88;;;22.30;45.00;;;;;;4999954;28;20498;-60
2022/09/23 05:26:28;;;;;;;1.70;1.55;;;22.30;45.00;;;;;;5000324;28;20374;-61
2022/09/23 05:28:56;;;;;;;4.38;1.60;;;22.30;45.20;;;;;;5008512;28;20054;-61
2022/09/23 05:31:25;;;;;;;2.55;1.75;;;22.30;45.40;;;;;;4995827;28;20046;-61
2022/09/23 05:33:59;;;;;;;2.38;1.63;;;22.30;45.50;;;;;;4998736;28;20125;-60
2022/09/23 05:36:28;;;;;;;2.95;1.52;;;22.30;45.40;;;;;;4996627;28;20387;-62
2022/09/23 05:39:02;;;;;;;1.88;1.20;;;22.40;46.00;;;;;;5003287;28;20056;-61
2022/09/23 05:41:30;;;;;;;1.50;1.40;;;22.40;45.40;;;;;;4999320;28;20145;-60
2022/09/23 05:43:58;;;;;;;2.70;1.60;;;22.40;45.40;;;;;;5000589;28;20500;-59
2022/09/23 05:46:28;;;;;;;3.13;1.92;;;22.40;45.20;;;;;;5003075;28;20126;-61
2022/09/23 05:48:57;;;;;;;2.40;1.95;;;22.50;45.00;;;;;;4998736;28;20054;-59
2022/09/23 05:51:29;;;;;;;2.33;1.98;;;22.50;45.00;;;;;;5006635;28;20049;-60
2022/09/23 05:53:58;;;;;;;1.95;1.70;;;22.50;45.00;;;;;;4999494;28;20046;-59
2022/09/23 05:56:26;;;;;;;4.03;2.00;;;22.50;44.90;;;;;;5010090;28;20057;-61
2022/09/23 05:58:55;;;;;;;2.90;2.20;;;22.60;44.90;;;;;;4999082;28;20104;-60
2022/09/23 06:01:30;;;;;;;3.92;2.10;;;22.60;45.00;;;;;;5004611;28;20485;-60
2022/09/23 06:03:57;;;;;;;3.65;2.38;;;22.60;45.10;;;;;;5003554;28;20045;-58
2022/09/23 06:06:32;;;;;;;3.38;2.45;;;22.60;45.10;;;;;;5005581;28;20069;-60
2022/09/23 06:09:00;;;;;;;5.63;2.88;;;22.60;45.00;;;;;;5004897;28;20045;-60
2022/09/23 06:11:32;;;;;;;5.13;2.95;;;22.70;44.70;;;;;;5003432;28;20116;-60
2022/09/23 06:14:02;;;;;;;4.68;2.42;;;22.70;44.30;;;;;;4999477;28;20518;-61
2022/09/23 06:16:32;;;;;;;3.72;2.70;;;22.70;44.30;;;;;;5009030;28;20116;-59
2022/09/23 06:19:04;;;;;;;3.58;2.35;;;22.70;44.40;;;;;;4997512;28;20405;-60
2022/09/23 06:21:39;;;;;;;6.43;2.90;;;22.80;44.20;;;;;;5002609;28;20050;-60
2022/09/23 06:24:07;;;;;;;3.97;2.17;;;22.80;44.00;;;;;;5007314;28;20049;-59
2022/09/23 06:26:37;;;;;;;9.13;2.92;;;22.80;43.90;;;;;;5006807;28;20069;-59
2022/09/23 06:29:10;;;;;;;2.97;2.03;;;22.90;43.80;;;;;;5006564;28;20081;-60
2022/09/23 06:31:39;;;;;;;2.90;2.28;;;22.90;43.60;;;;;;5002889;28;20053;-60
2022/09/23 06:34:10;;;;;;;4.60;2.80;;;22.90;43.50;;;;;;5000765;28;20041;-57
2022/09/23 06:36:40;;;;;;;2.83;2.33;;;22.90;43.40;;;;;;4996163;28;20052;-59
2022/09/23 06:39:12;;;;;;;3.35;2.58;;;22.90;43.60;;;;;;4991044;28;20042;-60
2022/09/23 06:41:40;;;;;;;7.05;2.45;;;22.90;43.70;;;;;;5002317;28;20058;-62
2022/09/23 06:44:07;;;;;;;6.93;3.00;;;23.00;43.80;;;;;;5002166;28;20049;-59
2022/09/23 06:46:35;;;;;;;7.88;2.63;;;23.00;44.30;;;;;;5006263;28;20050;-59
2022/09/23 06:49:03;;;;;;;6.38;2.38;;;23.00;44.70;;;;;;5001206;28;20058;-59
2022/09/23 06:51:30;;;;;;;6.28;2.50;;;23.10;44.80;;;;;;5010119;28;20421;-59
2022/09/23 06:53:57;;;;;;;6.82;2.72;;;23.10;44.60;;;;;;5002922;28;20054;-58
2022/09/23 06:56:24;;;;;;;6.28;2.20;;;23.10;44.40;;;;;;5002318;28;20042;-59
2022/09/23 06:58:52;;;;;;;3.97;2.15;;;23.10;44.30;;;;;;5000511;28;20057;-59
2022/09/23 07:01:19;;;;;;;2.30;2.03;;;23.10;44.20;;;;;;5002807;28;20041;-58
2022/09/23 07:03:47;;;;;;;2.47;1.40;;;23.20;44.10;;;;;;5009085;28;20453;-58
2022/09/23 07:06:14;;;;;;;3.70;1.58;;;23.20;43.90;;;;;;5002556;28;21023;-58
2022/09/23 07:08:43;;;;;;;4.82;1.60;;;23.20;43.70;;;;;;5002635;28;20049;-59
2022/09/23 07:11:12;;;;;;;2.63;1.67;;;23.20;43.50;;;;;;4993713;28;20061;-59
2022/09/23 07:13:41;;;;;;;3.72;1.92;;;23.30;43.40;;;;;;4997765;28;20616;-59
2022/09/23 07:16:10;;;;;;;1.92;1.33;;;23.30;43.40;;;;;;5001814;28;20455;-59
2022/09/23 07:18:38;;;;;;;2.47;1.60;;;23.30;43.40;;;;;;4991535;28;20046;-59
2022/09/23 07:21:14;;;;;;;3.50;1.77;;;23.40;43.20;;;;;;4993357;28;20077;-59
2022/09/23 07:23:46;;;;;;;2.15;1.58;;;23.40;43.00;;;;;;4993664;28;20123;-59
2022/09/23 07:26:15;;;;;;;6.88;3.15;;;23.40;42.80;;;;;;4996093;28;20065;-59
2022/09/23 07:28:42;;;;;;;2.15;1.17;;;23.40;42.90;;;;;;4999957;28;20050;-58
2022/09/23 07:31:12;;;;;;;1.45;1.35;;;23.40;42.80;;;;;;5004818;28;20560;-59
2022/09/23 07:33:42;;;;;;;2.90;1.60;;;23.50;42.90;;;;;;5000001;28;20046;-58
2022/09/23 07:36:13;;;;;;;1.83;1.40;;;23.50;43.00;;;;;;5002268;28;20120;-62
2022/09/23 07:38:40;;;;;;;1.40;1.20;;;23.50;42.90;;;;;;5003222;28;20489;-61
2022/09/23 07:41:14;;;;;;;1.88;1.60;;;23.50;42.70;;;;;;5002134;28;20053;-61
2022/09/23 07:43:41;;;;;;;3.92;1.58;;;23.60;42.60;;;;;;5002880;28;20509;-62
2022/09/23 07:46:13;;;;;;;1.48;1.33;;;23.60;43.10;;;;;;5000509;28;20046;-61
2022/09/23 07:48:40;;;;;;;1.33;1.15;;;23.60;42.40;;;;;;5002323;28;20060;-62
2022/09/23 07:51:16;;;;;;;1.50;1.40;;;23.60;42.30;;;;;;5006816;28;20057;-61
2022/09/23 07:53:47;;;;;;;2.63;1.60;;;23.60;42.20;;;;;;5004714;28;20076;-61
2022/09/23 07:56:16;;;;;;;2.53;1.65;;;23.70;42.20;;;;;;5005375;28;20053;-61
2022/09/23 07:58:43;;;;;;;1.90;1.42;;;23.70;42.20;;;;;;5000320;28;20053;-60
2022/09/23 08:01:11;;;;;;;2.63;1.50;;;23.70;42.20;;;;;;4999994;28;20062;-60
2022/09/23 08:03:38;;;;;;;2.72;1.58;;;23.70;42.20;;;;;;5001789;28;20099;-60
2022/09/23 08:06:12;;;;;;;1.83;1.52;;;23.70;42.40;;;;;;4999418;28;20041;-59
2022/09/23 08:08:42;;;;;;;5.78;1.35;;;23.70;42.50;;;;;;5004129;28;20049;-60
2022/09/23 08:11:11;;;;;;;;;;;23.80;42.60;;;;;;5000188;28;20152;-60
2022/09/23 08:13:38;;;;;;;2.35;1.73;;;23.80;42.60;;;;;;5007690;28;19933;-60
2022/09/23 08:16:05;;;;;;;3.25;1.40;;;23.80;42.60;;;;;;5005849;28;20406;-61
2022/09/23 08:18:33;;;;;;;1.90;1.55;;;23.90;42.60;;;;;;5002837;28;20481;-61
2022/09/23 08:21:00;;;;;;;6.47;1.55;;;23.90;42.50;;;;;;5012288;28;20053;-60
2022/09/23 08:23:32;;;;;;;3.78;1.45;;;23.90;42.40;;;;;;5001526;28;20053;-59
2022/09/23 08:26:01;;;;;;;7.22;1.15;;;23.90;42.30;;;;;;5006999;28;20046;-60
2022/09/23 08:28:30;;;;;;;1.27;0.98;;;24.00;42.40;;;;;;5008154;28;20042;-60
2022/09/23 08:30:57;;;;;;;2.40;1.60;;;24.00;42.40;;;;;;4999432;28;20061;-60
2022/09/23 08:33:24;;;;;;;2.67;1.40;;;24.00;42.40;;;;;;5007561;28;20045;-59
2022/09/23 08:35:52;;;;;;;7.97;1.77;;;24.10;42.40;;;;;;5007477;28;20486;-62
2022/09/23 08:38:19;;;;;;;6.40;1.45;;;24.10;43.00;;;;;;5005386;28;20045;-60
2022/09/23 08:40:48;;;;;;;3.20;1.30;;;24.10;42.20;;;;;;5010160;28;20050;-61
2022/09/23 08:43:28;;;;;;;6.18;1.23;;;24.10;42.10;;;;;;5005960;28;21728;-60
2022/09/23 08:46:00;;;;;;;3.13;1.58;;;24.20;42.10;;;;;;5004462;28;20060;-60
2022/09/23 08:48:37;;;;;;;2.90;1.10;;;24.20;42.00;;;;;;4989603;28;20045;-59
2022/09/23 08:51:13;;;;;;;2.53;1.20;;;24.20;42.00;;;;;;5001258;28;20050;-60
2022/09/23 08:53:41;;;;;;;3.70;1.25;;;24.20;41.90;;;;;;5005175;28;20486;-59
2022/09/23 08:56:18;;;;;;;5.15;1.23;;;24.20;41.70;;;;;;5013067;28;20453;-60
2022/09/23 08:59:00;;;;;;;5.35;1.40;;;24.30;42.10;;;;;;5015310;28;20052;-60
2022/09/23 09:01:44;;;;;;;5.20;1.35;;;24.30;42.20;;;;;;5008646;28;20053;-59
2022/09/23 09:04:40;;;;;;;2.30;1.15;;;24.30;42.10;;;;;;5005645;28;20038;-61
2022/09/23 09:07:17;;;;;;;1.00;0.90;;;24.30;42.00;;;;;;4998846;28;20152;-60
2022/09/23 09:10:15;;;;;;;3.47;1.13;;;24.40;42.00;;;;;;4991051;28;20050;-60
2022/09/23 09:12:46;;;;;;;2.65;0.95;;;24.40;41.90;;;;;;5012537;28;20052;-61
2022/09/23 09:15:19;;;;;;;1.33;1.00;;;24.40;41.70;;;;;;5007305;28;20074;-60
2022/09/23 09:18:11;;;;;;;3.00;1.33;;;24.40;41.50;;;;;;5010505;28;20413;-59
2022/09/23 09:21:07;;;;;;;3.80;0.90;;;24.40;41.50;;;;;;5014606;28;20058;-61
2022/09/23 09:23:56;;;;;;;1.48;1.20;;;24.50;41.40;;;;;;4999068;28;20248;-58
2022/09/23 09:26:31;;;;;;;1.73;1.15;;;24.50;41.30;;;;;;5011798;28;20545;-61
2022/09/23 09:29:09;;;;;;;3.70;1.63;;;24.50;41.40;;;;;;4992257;28;20092;-59
2022/09/23 09:31:58;;;;;;;3.30;1.20;;;24.50;41.30;;;;;;5002518;28;20052;-60
2022/09/23 09:34:43;;;;;;;6.53;1.50;;;24.60;41.30;;;;;;5010642;28;20129;-59
2022/09/23 09:37:19;;;;;;;5.15;1.17;;;24.60;41.20;;;;;;5011832;28;20045;-59
2022/09/23 09:39:47;;;;;;;2.92;0.93;;;24.60;41.10;;;;;;5011735;28;20045;-58
2022/09/23 09:42:41;;;;;;;4.15;1.42;;;24.70;41.00;;;;;;5006848;28;20145;-60
2022/09/23 09:45:52;;;;;;;2.70;0.95;;;24.70;41.00;;;;;;5004947;28;20053;-60
2022/09/23 09:48:37;;;;;;;1.90;1.02;;;24.70;40.90;;;;;;5009465;28;20038;-59
2022/09/23 09:51:20;;;;;;;0.85;0.85;;;24.70;40.90;;;;;;5007995;28;20059;-59
2022/09/23 09:53:52;;;;;;;3.95;1.10;;;24.70;40.70;;;;;;4987285;28;20042;-59
2022/09/23 09:56:30;;;;;;;8.88;1.00;;;24.70;40.70;;;;;;5004773;28;20137;-59
2022/09/23 09:59:10;;;;;;;2.15;0.80;;;24.70;40.70;;;;;;5010587;28;20172;-60
2022/09/23 10:01:37;;;;;;;;;;;24.80;40.60;;;;;;5003643;28;20056;-58
2022/09/23 10:04:32;;;;;;;2.55;0.93;;;24.80;40.40;;;;;;5000966;28;19928;-59
2022/09/23 10:07:13;;;;;;;1.92;0.80;;;24.80;40.50;;;;;;4998251;28;20610;-60
2022/09/23 10:09:47;;;;;;;;;;;24.80;40.40;;;;;;5007478;28;20073;-60
2022/09/23 10:12:18;;;;;;;1.10;0.88;;;24.80;40.20;;;;;;5005324;28;20568;-59
2022/09/23 10:14:51;;;;;;;3.00;0.98;;;24.80;40.10;;;;;;4999065;28;20078;-60
2022/09/23 10:17:31;;;;;;;2.95;0.88;;;24.80;39.90;;;;;;5008664;28;20081;-60
2022/09/23 10:20:00;;;;;;;;;;;24.90;39.80;;;;;;4988551;28;20069;-60
2022/09/23 10:22:32;;;;;;;1.73;0.75;;;24.80;39.60;;;;;;5001778;28;19983;-59
2022/09/23 10:25:06;;;;;;;5.28;0.82;;;24.80;39.50;;;;;;5000035;28;20049;-60
2022/09/23 10:27:35;;;;;;;1.48;0.75;;;24.90;39.50;;;;;;4996189;28;20120;-60
2022/09/23 10:30:22;;;;;;;0.65;0.65;;;24.90;39.50;;;;;;5002630;28;20054;-59
2022/09/23 10:32:52;;;;;;;1.20;1.00;;;24.90;39.50;;;;;;4998124;28;20064;-59
2022/09/23 10:35:23;;;;;;;0.70;0.60;;;24.90;39.30;;;;;;4998223;28;20081;-59
2022/09/23 10:38:01;;;;;;;3.05;0.68;;;24.90;39.20;;;;;;4986905;28;20054;-59
2022/09/23 10:47:14;;;;;;;0.88;0.70;;;24.90;39.20;;;;;;4987727;28;20109;-59
2022/09/23 10:50:03;;;;;;;5.47;0.40;;;24.90;39.10;;;;;;5007576;28;20046;-60
2022/09/23 10:52:50;;;;;;;2.67;1.33;;;24.90;39.00;;;;;;5005738;28;20877;-59
2022/09/23 10:55:53;;;;;;;1.35;0.80;;;25.00;38.80;;;;;;5004792;28;20425;-59
2022/09/23 10:59:00;;;;;;;3.60;0.82;;;25.00;38.70;;;;;;5002025;28;20080;-59
2022/09/23 11:02:00;;;;;;;1.50;1.00;;;25.00;38.70;;;;;;4990833;28;20133;-60
2022/09/23 11:04:50;;;;;;;0.65;0.65;;;25.00;38.60;;;;;;5010058;28;20491;-60
2022/09/23 11:07:40;;;;;;;1.05;0.63;;;25.10;38.50;;;;;;4990036;28;20043;-59
2022/09/23 11:10:42;;;;;;;0.77;0.60;;;25.00;38.30;;;;;;4998698;28;20386;-60
2022/09/23 11:13:39;;;;;;;2.28;0.50;;;25.10;38.00;;;;;;5006978;28;20100;-61
2022/09/23 11:16:39;;;;;;;2.17;0.75;;;25.10;37.90;;;;;;4993675;28;20045;-60
2022/09/23 11:19:47;;;;;;;1.25;0.70;;;25.10;38.10;;;;;;4997205;28;20042;-60
2022/09/23 11:22:46;;;;;;;1.27;0.55;;;25.10;38.10;;;;;;4986530;28;20137;-62
2022/09/23 11:25:38;;;;;;;0.68;0.57;;;25.10;38.00;;;;;;5002954;28;20056;-61
2022/09/23 11:28:35;;;;;;;2.78;0.68;;;25.10;38.00;;;;;;5004937;28;20109;-59
2022/09/23 11:31:26;;;;;;;2.28;0.65;;;25.10;38.10;;;;;;5004374;28;20064;-59
2022/09/23 11:34:27;;;;;;;0.30;0.30;;;25.10;37.90;;;;;;5003876;28;20077;-59
2022/09/23 11:37:05;;;;;;;1.02;0.35;;;25.10;37.90;;;;;;5004647;28;20064;-60
2022/09/23 11:39:56;;;;;;;0.70;0.50;;;25.10;37.90;;;;;;4996846;28;20084;-59
2022/09/23 11:42:27;;;;;;;0.68;0.68;;;25.20;37.90;;;;;;4988843;28;20799;-59
2022/09/23 11:45:01;;;;;;;1.55;0.60;;;25.20;38.00;;;;;;5005765;28;20107;-59
2022/09/23 11:47:35;;;;;;;1.58;0.80;;;25.20;38.00;;;;;;5001990;28;20044;-60
2022/09/23 11:50:42;;;;;;;1.63;0.50;;;25.20;37.90;;;;;;5010497;28;20045;-60
2022/09/23 11:53:46;;;;;;;4.18;0.70;;;25.20;38.00;;;;;;4999085;28;20136;-59
2022/09/23 11:56:27;;;;;;;1.15;0.60;;;25.20;38.00;;;;;;4998821;28;20410;-59
2022/09/23 11:59:32;;;;;;;3.47;1.15;;;25.30;38.00;;;;;;4995292;28;21254;-58
2022/09/23 12:02:38;;;;;;;3.20;0.60;;;25.30;38.00;;;;;;5000722;28;20454;-60
2022/09/23 12:05:14;;;;;;;0.70;0.60;;;25.40;38.10;;;;;;4986700;28;20485;-60
2022/09/23 12:08:02;;;;;;;1.13;0.60;;;25.40;38.10;;;;;;5006142;28;20504;-60
2022/09/23 12:11:00;;;;;;;0.43;0.43;;;25.40;37.90;;;;;;5008011;28;20132;-60
2022/09/23 12:14:03;;;;;;;1.33;0.50;;;25.40;37.80;;;;;;4984972;28;20048;-61
2022/09/23 12:17:02;;;;;;;1.40;0.68;;;25.40;37.50;;;;;;4997523;28;20135;-60
2022/09/23 12:20:09;;;;;;;3.08;0.60;;;25.40;37.40;;;;;;4986144;28;20107;-60
2022/09/23 12:23:12;;;;;;;0.65;0.57;;;25.40;37.30;;;;;;4996902;28;20145;-60
2022/09/23 12:25:46;;;;;;;2.33;0.35;;;25.40;37.40;;;;;;4991670;28;20343;-60
2022/09/23 12:28:18;;;;;;;3.10;0.57;;;25.40;37.40;;;;;;5001050;28;20050;-60
2022/09/23 12:30:47;;;;;;;1.10;0.60;;;25.30;37.30;;;;;;5002735;28;20388;-61
2022/09/23 12:33:27;;;;;;;1.23;0.90;;;25.40;37.50;;;;;;5001622;28;20058;-60
2022/09/23 12:36:02;;;;;;;3.40;0.65;;;25.40;37.80;;;;;;5000456;28;20692;-60
2022/09/23 12:38:37;;;;;;;2.42;0.65;;;25.30;37.80;;;;;;5009067;28;20078;-61
2022/09/23 12:41:26;;;;;;;0.40;0.40;;;25.30;37.90;;;;;;5004622;28;20108;-61
2022/09/23 12:43:56;;;;;;;1.13;0.55;;;25.30;38.30;;;;;;5004573;28;20074;-61
2022/09/23 12:46:26;;;;;;;1.17;0.70;;;25.30;38.00;;;;;;5002436;28;20077;-61
2022/09/23 12:49:00;;;;;;;0.73;0.60;;;25.30;38.00;;;;;;4997653;28;20046;-60
2022/09/23 12:51:32;;;;;;;1.50;0.50;;;25.30;38.00;;;;;;4996742;28;20490;-61
2022/09/23 12:54:14;;;;;;;5.13;0.95;;;25.30;37.80;;;;;;5001968;28;20081;-60
2022/09/23 12:56:57;;;;;;;2.83;0.80;;;25.30;38.10;;;;;;5004723;28;20128;-61
2022/09/23 12:59:30;;;;;;;2.55;1.13;;;25.30;38.10;;;;;;5002422;28;20516;-60
2022/09/23 13:02:23;;;;;;;5.43;0.60;;;25.30;37.70;;;;;;4990171;28;20073;-60
2022/09/23 13:08:21;;;;;;;3.95;0.40;;;25.20;37.90;;;;;;4988086;28;20045;-59
2022/09/23 13:10:58;;;;;;;1.70;0.70;;;25.20;37.90;;;;;;5002735;28;20524;-59
2022/09/23 13:13:36;;;;;;;1.77;0.98;;;25.20;37.70;;;;;;5021756;28;20164;-59
2022/09/23 13:16:32;;;;;;;0.90;0.30;;;25.20;37.70;;;;;;5008795;28;20042;-59
2022/09/23 13:19:01;;;;;;;0.60;0.40;;;25.20;37.60;;;;;;4989581;28;20054;-59
2022/09/23 13:22:06;;;;;;;0.90;0.52;;;25.20;37.60;;;;;;5010059;28;20074;-59
2022/09/23 13:24:43;;;;;;;1.02;0.70;;;25.20;37.60;;;;;;5010226;28;20100;-60
2022/09/23 13:27:16;;;;;;;0.40;0.40;;;25.20;37.50;;;;;;5009380;28;20502;-60
2022/09/23 13:30:06;;;;;;;0.90;0.38;;;25.10;37.10;;;;;;5001060;28;20142;-60
2022/09/23 13:32:41;;;;;;;2.97;0.40;;;25.10;37.60;;;;;;4992118;28;20502;-60
2022/09/23 13:35:25;;;;;;;0.40;0.40;;;25.20;39.00;;;;;;5001127;28;20077;-60
2022/09/23 13:37:53;;;;;;;4.50;0.50;;;25.20;39.30;;;;;;5010917;28;20128;-60
2022/09/23 13:40:25;;;;;;;3.15;0.98;;;25.20;39.40;;;;;;5006776;28;20129;-60
2022/09/23 13:43:05;;;;;;;0.65;0.30;;;25.20;39.10;;;;;;5010361;28;20365;-60
2022/09/23 13:45:38;;;;;;;2.58;0.40;;;25.20;38.50;;;;;;5011012;28;20069;-60
2022/09/23 13:48:17;;;;;;;1.27;0.40;;;25.10;38.00;;;;;;5011143;28;20486;-60